Terminal Aerodrome Forecast
Issued by NWS Portland, OR

Home | Current Version | Previous Version | Text Only | Print | Product List | Glossary On
Versions: 1 2 3 4 5 6 7 8 9 10 11 12 13 14 15 16 17 18 19 20 21 22 23 24 25 26 27
000
FTUS46 KPQR 261725
TAFAST
TAF
KAST 261725Z 2618/2718 14005KT P6SM -RA OVC060
     FM262100 19012G20KT 5SM -RA BR OVC025
     FM270300 19008KT 4SM -RA BR BKN012 OVC025
     FM270900 VRB03KT 4SM BR SCT007 BKN012
     FM271400 VRB03KT 6SM BR SCT009 BKN015=

USA.gov is the U.S. government's official web portal to all federal, state and local government web resources and services.